METAR Data
IDs: Format: Raw Decoded Include TAF

Data at: 2319 UTC 25 Oct 2021

PAMO 252256Z AUTO 29011KT 10SM OVC042 M03/M05 A2943 RMK AO2 SLP974 T10281050 FZRANO
PAMO 252056Z AUTO 31007KT 9SM -SN SCT027 BKN033 OVC043 M04/M04 A2944 RMK AO2 SNB10 SLP976 P0000 60000 T10391044 51007 FZRANO
PAMO 251956Z AUTO 31007KT 10SM FEW030 BKN037 OVC050 M04/M04 A2943 RMK AO2 SNB32E50 SLP975 P0000 T10391044 FZRANO
PAMO 251756Z AUTO 33008KT 10SM CLR M07/M07 A2941 RMK AO2 SLP968 T10671072 11044 21072 52001 FZRANO
PAMO 251556Z AUTO 33006KT 10SM CLR M07/M07 A2941 RMK AO2 SLP966 T10671072 FZRANO
PAMO 251456Z AUTO 32006KT 10SM SCT024 M06/M07 A2941 RMK AO2 SLP966 T10611067 56002 FZRANO
PAMO 251256Z AUTO 32006KT 10SM OVC045 M05/M06 A2941 RMK AO2 SLP966 T10501056 FZRANO
PAMO 251056Z AUTO 33006KT 9SM FEW003 BKN013 OVC030 M05/M06 A2942 RMK AO2 SNB08E35 SLP967 P0000 T10501056 FZRANO
PAMO 251045Z AUTO 33007KT 2SM BR FEW003 BKN016 OVC021 M04/M05 A2942 RMK AO2 SNB08E35 P0000 FZRANO
PAMO 251018Z AUTO 32005KT 1/2SM -SN FZFG BKN003 OVC033 M04/M05 A2942 RMK AO2 SNB08 P0000 FZRANO
PAMO 250924Z AUTO 30007KT 10SM BKN003 OVC027 M04/M04 A2943 RMK AO2 FZRANO
PAMO 250856Z AUTO 29008KT 10SM FEW008 SCT018 OVC025 M04/M04 A2942 RMK AO2 SLP970 T10391044 56004 FZRANO
PAMO 250807Z AUTO 29007KT 10SM FEW007 BKN026 OVC032 M04/M05 A2943 RMK AO2 FZRANO
PAMO 250756Z AUTO 30007KT 10SM OVC026 M04/M05 A2943 RMK AO2 SLP970 T10391050 400061050 FZRANO
PAMO 250556Z AUTO 28007KT 10SM CLR M04/M07 A2944 RMK AO2 SLP974 T10441067 10000 21044 56007 FZRANO
PAMO 250356Z AUTO 29009KT 10SM BKN019 M03/M06 A2945 RMK AO2 SLP978 T10281056 FZRANO
PAMO 250156Z AUTO 31010KT 10SM FEW023 M01/M05 A2947 RMK AO2 SLP984 T10061050 FZRANO
PAMO 250115Z AUTO 29011KT 10SM SCT028 M01/M05 A2948 RMK AO2 FZRANO
PAMO 250056Z AUTO 28012KT 10SM BKN028 M01/M04 A2948 RMK AO2 SLP989 T10061044 FZRANO
PAMO 250051Z AUTO 29009KT 10SM BKN028 M01/M04 A2948 RMK AO2 FZRANO
PAMO 250037Z AUTO 29013KT 10SM FEW019 M01/M04 A2948 RMK AO2 FZRANO
PAMO 250028Z AUTO 29009KT 10SM SCT019 BKN026 M01/M04 A2949 RMK AO2 FZRANO
PAMO 242256Z AUTO 28011KT 2 1/2SM -SN FEW015 BKN019 OVC055 00/M03 A2951 RMK AO2 VIS 1 1/2V5 UPB19E46SNB46 SLP999 P0000 T00001028 FZRANO
PAMO 242247Z AUTO 29010KT 8SM -SN SCT015 BKN037 OVC055 00/M03 A2951 RMK AO2 UPB19E46SNB46 P0000 FZRANO
PAMO 242204Z AUTO 26010KT 10SM SCT015 BKN028 OVC070 01/M03 A2952 RMK AO2 FZRANO
PAMO 242114Z AUTO 24008KT 10SM BKN020 00/M03 A2953 RMK AO2 FZRANO
PAMO 242056Z AUTO 24008KT 10SM FEW018 M01/M03 A2953 RMK AO2 SLP005 T10111028 53001 FZRANO
PAMO 241856Z AUTO 26007KT 10SM CLR M03/M04 A2953 RMK AO2 SLP005 T10281039 FZRANO
PAMO 241756Z AUTO 26007KT 10SM BKN033 M03/M03 A2953 RMK AO2 SNE26 SLP005 P0000 60000 T10281033 11017 21028 58007 FZRANO
PAMO 241718Z AUTO 27006KT 9SM -SN SCT013 BKN023 OVC035 M03/M03 A2953 RMK AO2 P0000 FZRANO
PAMO 241556Z AUTO 27008KT 6SM -SN BR OVC009 M02/M03 A2955 RMK AO2 SNB13 CIG 007V012 SLP011 P0000 T10221028 FZRANO
PAMO 241513Z AUTO 26007KT 10SM -SN BKN013 OVC026 M02/M03 A2955 RMK AO2 SNB13 P0000 FZRANO
PAMO 241356Z AUTO 27010KT 10SM BKN055 M02/M03 A2954 RMK AO2 SLP009 T10221033 FZRANO
PAMO 241225Z AUTO 27012KT 10SM SCT024 M03/M03 A2953 RMK AO2 FZRANO
PAMO 241156Z AUTO 27011KT 10SM BKN019 M02/M03 A2953 RMK AO2 SLP007 T10221033 11006 21022 51012 FZRANO